Time;durP1;ratioP1;P1;durP2;ratioP2;P2;SDS_P1;SDS_P2;PMS_P1;PMS_P2;Temp;Humidity;BMP_temperature;BMP_pressure;BME280_temperature;BME280_humidity;BME280_pressure;Samples;Min_cycle;Max_cycle;Signal;HPM_P1;HPM_P2
2022/05/01 00:00:02;;;;;;;4.07;3.67;;;;;;;;;;5019463;28;20214;-63
2022/05/01 00:02:31;;;;;;;4.13;3.30;;;;;;;;;;4995875;28;20245;-63
2022/05/01 00:05:01;;;;;;;4.30;3.43;;;;;;;;;;5027887;28;20619;-63
2022/05/01 00:07:33;;;;;;;4.57;3.23;;;;;;;;;;5024860;28;20202;-63
2022/05/01 00:10:02;;;;;;;3.73;3.30;;;;;;;;;;5007927;28;20222;-63
2022/05/01 00:12:32;;;;;;;4.50;3.40;;;;;;;;;;5004876;28;20211;-63
2022/05/01 00:15:06;;;;;;;3.77;3.10;;;;;;;;;;5024611;28;20206;-63
2022/05/01 00:17:36;;;;;;;3.93;3.07;;;;;;;;;;4995454;28;20199;-62
2022/05/01 00:20:07;;;;;;;3.93;3.53;;;;;;;;;;4991875;28;20257;-63
2022/05/01 00:22:43;;;;;;;3.43;3.13;;;;;;;;;;5009680;28;20218;-63
2022/05/01 00:25:15;;;;;;;3.43;3.10;;;;;;;;;;5026927;28;20282;-63
2022/05/01 00:27:47;;;;;;;3.17;2.70;;;;;;;;;;5024385;28;20191;-60
2022/05/01 00:30:17;;;;;;;3.30;3.00;;;;;;;;;;5027827;28;20195;-63
2022/05/01 00:38:30;;;;;;;3.07;2.77;;;;;;;;;;5018158;28;20233;-65
2022/05/01 00:41:02;;;;;;;3.23;2.77;;;;;;;;;;5012198;28;20196;-63
2022/05/01 00:43:34;;;;;;;3.47;2.90;;;;;;;;;;5013413;28;20207;-63
2022/05/01 00:46:04;;;;;;;3.57;3.00;;;;;;;;;;5007593;28;20226;-63
2022/05/01 00:48:34;;;;;;;3.50;2.80;;;;;;;;;;5027264;28;20704;-63
2022/05/01 00:51:03;;;;;;;2.70;2.50;;;;;;;;;;5027037;28;20237;-63
2022/05/01 00:53:33;;;;;;;2.90;2.60;;;;;;;;;;5025462;28;20199;-63
2022/05/01 00:56:04;;;;;;;3.60;2.60;;;;;;;;;;5026967;28;20923;-63
2022/05/01 00:58:37;;;;;;;3.23;2.80;;;;;;;;;;5024845;28;20254;-63
2022/05/01 01:01:07;;;;;;;3.23;2.70;;;;;;;;;;4993260;28;20204;-63
2022/05/01 01:03:35;;;;;;;3.13;2.63;;;;;;;;;;5013322;28;20213;-62
2022/05/01 01:06:03;;;;;;;3.23;2.77;;;;;;;;;;5027766;28;20192;-62
2022/05/01 01:08:30;;;;;;;3.43;3.07;;;;;;;;;;5024963;28;20202;-63
2022/05/01 01:10:58;;;;;;;3.17;2.63;;;;;;;;;;5009810;28;20211;-63
2022/05/01 01:13:26;;;;;;;2.77;2.57;;;;;;;;;;5017391;28;20222;-63
2022/05/01 01:15:54;;;;;;;2.67;2.40;;;;;;;;;;5019781;28;20681;-63
2022/05/01 01:18:22;;;;;;;2.93;2.67;;;;;;;;;;5012343;28;20227;-63
2022/05/01 01:20:51;;;;;;;2.50;2.30;;;;;;;;;;5011057;28;20226;-63
2022/05/01 01:23:19;;;;;;;3.03;2.53;;;;;;;;;;5012214;28;20211;-62
2022/05/01 01:25:47;;;;;;;2.70;2.50;;;;;;;;;;5028394;28;20252;-62
2022/05/01 01:28:15;;;;;;;2.70;2.47;;;;;;;;;;5030735;28;20199;-63
2022/05/01 01:33:30;;;;;;;2.57;2.37;;;;;;;;;;5031124;28;20268;-62
2022/05/01 01:36:02;;;;;;;2.93;2.40;;;;;;;;;;5023178;28;20266;-62
2022/05/01 01:38:29;;;;;;;2.67;2.47;;;;;;;;;;5015528;28;20333;-62
2022/05/01 01:40:58;;;;;;;2.53;2.33;;;;;;;;;;5031228;28;20260;-63
2022/05/01 01:43:27;;;;;;;3.00;2.70;;;;;;;;;;5029999;28;20195;-62
2022/05/01 01:45:55;;;;;;;2.50;2.10;;;;;;;;;;5025560;28;20381;-62
2022/05/01 01:48:23;;;;;;;2.93;2.60;;;;;;;;;;5013156;28;20700;-63
2022/05/01 01:50:57;;;;;;;2.40;2.20;;;;;;;;;;5003198;28;20254;-63
2022/05/01 01:53:25;;;;;;;2.30;2.10;;;;;;;;;;5012122;28;20203;-63
2022/05/01 01:55:52;;;;;;;2.50;2.30;;;;;;;;;;5021223;28;20200;-63
2022/05/01 01:58:20;;;;;;;2.43;2.20;;;;;;;;;;5005639;28;20235;-63
2022/05/01 02:00:47;;;;;;;2.53;2.33;;;;;;;;;;5006058;28;20262;-62
2022/05/01 02:03:14;;;;;;;2.50;2.30;;;;;;;;;;5009668;28;20196;-63
2022/05/01 02:05:41;;;;;;;2.30;2.10;;;;;;;;;;5002802;28;20480;-63
2022/05/01 02:08:09;;;;;;;2.50;2.30;;;;;;;;;;5010247;28;20208;-63
2022/05/01 02:10:36;;;;;;;2.80;2.50;;;;;;;;;;5017112;28;20212;-63
2022/05/01 02:13:04;;;;;;;2.07;1.87;;;;;;;;;;5009816;28;20668;-63
2022/05/01 02:15:31;;;;;;;2.57;1.97;;;;;;;;;;5020450;28;20261;-62
2022/05/01 02:17:59;;;;;;;2.37;2.03;;;;;;;;;;5008426;28;20215;-63
2022/05/01 02:20:27;;;;;;;2.10;1.90;;;;;;;;;;5025898;28;20658;-63
2022/05/01 02:22:54;;;;;;;2.37;2.00;;;;;;;;;;5027436;28;20775;-63
2022/05/01 02:25:23;;;;;;;2.43;2.23;;;;;;;;;;5025178;28;20204;-63
2022/05/01 02:27:58;;;;;;;2.63;2.17;;;;;;;;;;5008380;28;20225;-63
2022/05/01 02:30:26;;;;;;;2.43;2.23;;;;;;;;;;5025260;28;20195;-63
2022/05/01 02:32:56;;;;;;;2.37;2.17;;;;;;;;;;5018582;28;20223;-62
2022/05/01 02:35:26;;;;;;;2.17;2.03;;;;;;;;;;5020844;28;20293;-62
2022/05/01 02:37:57;;;;;;;2.60;2.40;;;;;;;;;;5026281;28;20666;-62
2022/05/01 02:40:29;;;;;;;2.57;2.20;;;;;;;;;;5029002;28;20202;-62
2022/05/01 02:42:59;;;;;;;2.20;2.00;;;;;;;;;;5028605;28;20251;-63
2022/05/01 02:45:31;;;;;;;2.37;2.17;;;;;;;;;;5026917;28;20202;-62
2022/05/01 02:48:01;;;;;;;2.33;2.10;;;;;;;;;;5011837;28;20207;-63
2022/05/01 02:50:30;;;;;;;3.00;2.00;;;;;;;;;;5028831;28;20214;-62
2022/05/01 02:53:04;;;;;;;2.13;1.80;;;;;;;;;;5028754;28;20276;-63
2022/05/01 02:55:32;;;;;;;1.97;1.87;;;;;;;;;;5023378;28;20203;-63
2022/05/01 02:58:02;;;;;;;2.27;2.07;;;;;;;;;;5026522;28;20277;-63
2022/05/01 03:00:29;;;;;;;2.03;1.83;;;;;;;;;;5015906;28;20254;-63
2022/05/01 03:02:58;;;;;;;2.17;1.97;;;;;;;;;;4991566;28;20198;-63
2022/05/01 03:05:30;;;;;;;2.10;1.90;;;;;;;;;;5021493;28;20735;-63
2022/05/01 03:08:01;;;;;;;1.80;1.70;;;;;;;;;;5027018;28;20187;-62
2022/05/01 03:10:29;;;;;;;1.80;1.70;;;;;;;;;;5025627;28;20195;-63
2022/05/01 03:13:01;;;;;;;2.70;2.20;;;;;;;;;;5028115;28;20286;-63
2022/05/01 03:15:30;;;;;;;1.80;1.70;;;;;;;;;;5022330;28;20205;-63
2022/05/01 03:23:43;;;;;;;2.10;1.90;;;;;;;;;;5022493;28;20210;-63
2022/05/01 03:26:13;;;;;;;2.00;1.80;;;;;;;;;;5027997;28;20203;-63
2022/05/01 03:28:43;;;;;;;2.10;1.90;;;;;;;;;;5021660;28;20226;-63
2022/05/01 03:31:17;;;;;;;2.20;2.00;;;;;;;;;;5024340;28;20209;-64
2022/05/01 03:33:44;;;;;;;2.40;2.17;;;;;;;;;;5022314;28;20277;-63
2022/05/01 03:36:14;;;;;;;1.90;1.70;;;;;;;;;;5010836;28;20202;-63
2022/05/01 03:38:48;;;;;;;2.10;2.00;;;;;;;;;;5011460;28;20248;-64
2022/05/01 03:41:18;;;;;;;2.23;2.03;;;;;;;;;;5010538;28;20741;-63
2022/05/01 03:43:53;;;;;;;2.27;2.07;;;;;;;;;;5025259;28;20210;-63
2022/05/01 03:46:23;;;;;;;2.00;1.90;;;;;;;;;;5008268;28;20269;-63
2022/05/01 03:49:11;;;;;;;2.20;2.10;;;;;;;;;;5027283;28;20262;-63
2022/05/01 03:51:42;;;;;;;2.10;1.90;;;;;;;;;;5025291;28;20198;-63
2022/05/01 03:54:13;;;;;;;1.90;1.80;;;;;;;;;;5027645;28;20199;-63
2022/05/01 03:56:44;;;;;;;2.33;2.10;;;;;;;;;;5034664;28;20681;-63
2022/05/01 03:59:16;;;;;;;1.90;1.80;;;;;;;;;;5005267;28;20597;-62
2022/05/01 04:01:45;;;;;;;2.17;2.00;;;;;;;;;;4997688;28;20200;-62
2022/05/01 04:04:13;;;;;;;2.17;2.07;;;;;;;;;;5007809;28;20192;-63
2022/05/01 04:06:45;;;;;;;1.70;1.60;;;;;;;;;;5007425;28;20286;-63
2022/05/01 04:09:16;;;;;;;1.90;1.80;;;;;;;;;;5007980;28;20209;-63
2022/05/01 04:11:48;;;;;;;1.90;1.80;;;;;;;;;;5020204;28;20234;-63
2022/05/01 04:14:19;;;;;;;2.73;2.30;;;;;;;;;;4989753;28;20219;-62
2022/05/01 04:17:01;;;;;;;2.17;1.93;;;;;;;;;;5006741;28;20183;-63
2022/05/01 04:19:32;;;;;;;2.23;2.07;;;;;;;;;;5005265;28;20200;-63
2022/05/01 04:22:04;;;;;;;2.20;1.97;;;;;;;;;;5013694;28;20211;-63
2022/05/01 04:24:35;;;;;;;2.13;1.90;;;;;;;;;;5023684;28;20211;-63
2022/05/01 04:27:09;;;;;;;1.60;1.50;;;;;;;;;;5026729;28;20249;-63
2022/05/01 04:29:42;;;;;;;2.03;1.83;;;;;;;;;;5025227;28;20203;-63
2022/05/01 04:32:14;;;;;;;1.90;1.80;;;;;;;;;;5026887;28;20357;-67
2022/05/01 04:34:44;;;;;;;1.90;1.80;;;;;;;;;;5022128;28;20230;-63
2022/05/01 04:37:13;;;;;;;2.13;1.93;;;;;;;;;;5026864;28;20194;-63
2022/05/01 04:39:40;;;;;;;2.00;1.90;;;;;;;;;;5025077;28;20205;-62
2022/05/01 04:42:08;;;;;;;1.97;1.77;;;;;;;;;;5028209;28;20195;-63
2022/05/01 04:44:40;;;;;;;2.43;1.93;;;;;;;;;;5014608;28;20183;-63
2022/05/01 04:47:10;;;;;;;1.97;1.87;;;;;;;;;;5029061;28;20850;-62
2022/05/01 04:49:42;;;;;;;2.10;1.93;;;;;;;;;;5011969;28;20284;-63
2022/05/01 04:52:12;;;;;;;1.87;1.77;;;;;;;;;;5031312;28;20545;-63
2022/05/01 04:54:44;;;;;;;2.53;2.33;;;;;;;;;;5013735;28;20235;-62
2022/05/01 04:57:15;;;;;;;2.30;2.10;;;;;;;;;;5021749;28;20203;-63
2022/05/01 05:00:00;;;;;;;1.90;1.80;;;;;;;;;;5006728;28;20426;-63
2022/05/01 05:02:37;;;;;;;1.90;1.80;;;;;;;;;;5030265;28;20203;-62
2022/05/01 05:05:15;;;;;;;2.00;1.90;;;;;;;;;;5031364;28;20224;-62
2022/05/01 05:07:49;;;;;;;2.37;2.17;;;;;;;;;;5011180;28;20651;-63
2022/05/01 05:10:20;;;;;;;2.27;2.10;;;;;;;;;;5012177;28;20215;-62
2022/05/01 05:12:52;;;;;;;2.23;2.03;;;;;;;;;;4974650;28;20192;-63
2022/05/01 05:15:25;;;;;;;2.40;2.20;;;;;;;;;;4991790;28;20254;-62
2022/05/01 05:17:58;;;;;;;2.23;2.07;;;;;;;;;;5027803;28;20210;-62
2022/05/01 05:20:28;;;;;;;2.37;2.17;;;;;;;;;;5011051;28;20202;-62
2022/05/01 05:22:58;;;;;;;2.80;2.33;;;;;;;;;;4988995;28;20216;-63
2022/05/01 05:25:27;;;;;;;2.40;2.20;;;;;;;;;;4991635;28;20212;-63
2022/05/01 05:27:56;;;;;;;2.20;2.00;;;;;;;;;;5029829;28;20203;-63
2022/05/01 05:30:28;;;;;;;2.37;2.17;;;;;;;;;;5030964;28;20542;-62
2022/05/01 05:33:00;;;;;;;2.80;2.40;;;;;;;;;;5029522;28;20190;-62
2022/05/01 05:35:29;;;;;;;2.50;2.30;;;;;;;;;;5028158;28;20219;-62
2022/05/01 05:38:01;;;;;;;2.60;2.40;;;;;;;;;;5012942;28;20183;-62
2022/05/01 05:40:29;;;;;;;2.30;2.10;;;;;;;;;;5031030;28;20199;-62
2022/05/01 05:42:59;;;;;;;2.77;2.57;;;;;;;;;;5029982;28;20281;-62
2022/05/01 05:45:31;;;;;;;2.67;2.47;;;;;;;;;;5030778;28;20640;-62
2022/05/01 05:48:05;;;;;;;2.57;2.37;;;;;;;;;;5030121;28;20574;-62
2022/05/01 05:50:34;;;;;;;2.70;2.50;;;;;;;;;;4999849;28;20223;-63
2022/05/01 05:53:05;;;;;;;2.30;2.10;;;;;;;;;;5024144;28;20210;-62
2022/05/01 05:55:37;;;;;;;3.10;2.80;;;;;;;;;;4990845;28;20200;-62
2022/05/01 05:58:07;;;;;;;2.70;2.50;;;;;;;;;;5026009;28;20242;-63
2022/05/01 06:00:35;;;;;;;2.70;2.50;;;;;;;;;;5017302;28;20505;-62
2022/05/01 06:03:06;;;;;;;2.77;2.57;;;;;;;;;;5026605;28;20207;-62
2022/05/01 06:05:37;;;;;;;2.70;2.50;;;;;;;;;;5028264;28;20187;-61
2022/05/01 06:08:09;;;;;;;2.80;2.60;;;;;;;;;;5030004;28;20183;-62
2022/05/01 06:10:40;;;;;;;3.17;2.90;;;;;;;;;;5027811;28;20214;-62
2022/05/01 06:13:12;;;;;;;2.93;2.60;;;;;;;;;;5015673;28;20705;-63
2022/05/01 06:15:45;;;;;;;2.83;2.63;;;;;;;;;;5007222;28;20200;-63
2022/05/01 06:18:17;;;;;;;2.40;2.20;;;;;;;;;;5014691;28;20273;-62
2022/05/01 06:20:45;;;;;;;2.90;2.70;;;;;;;;;;5003457;28;20199;-61
2022/05/01 06:23:17;;;;;;;2.70;2.50;;;;;;;;;;5007238;28;20236;-62
2022/05/01 06:25:49;;;;;;;2.70;2.50;;;;;;;;;;5027364;28;20664;-62
2022/05/01 06:28:19;;;;;;;3.20;2.90;;;;;;;;;;5029264;28;20206;-62
2022/05/01 06:30:51;;;;;;;2.57;2.37;;;;;;;;;;5029787;28;20191;-62
2022/05/01 06:33:21;;;;;;;2.70;2.50;;;;;;;;;;5028526;28;20222;-62
2022/05/01 06:35:55;;;;;;;2.90;2.70;;;;;;;;;;5023937;28;20273;-63
2022/05/01 06:38:26;;;;;;;2.70;2.50;;;;;;;;;;5029044;28;20191;-62
2022/05/01 06:40:56;;;;;;;3.33;3.07;;;;;;;;;;5029323;28;20210;-63
2022/05/01 06:43:23;;;;;;;3.03;2.83;;;;;;;;;;5028540;28;20190;-63
2022/05/01 06:45:50;;;;;;;2.80;2.60;;;;;;;;;;5018112;28;20199;-63
2022/05/01 06:48:18;;;;;;;3.10;2.90;;;;;;;;;;5024408;28;20207;-63
2022/05/01 06:50:46;;;;;;;2.40;2.20;;;;;;;;;;4996119;28;20277;-63
2022/05/01 06:53:13;;;;;;;2.70;2.50;;;;;;;;;;5022660;28;20183;-62
2022/05/01 06:55:40;;;;;;;2.63;2.43;;;;;;;;;;5026080;28;20206;-63
2022/05/01 06:58:07;;;;;;;2.63;2.43;;;;;;;;;;5008085;28;20255;-62
2022/05/01 07:00:35;;;;;;;3.43;3.13;;;;;;;;;;4998286;28;20202;-62
2022/05/01 07:03:02;;;;;;;2.63;2.43;;;;;;;;;;5019859;28;20184;-62
2022/05/01 07:05:30;;;;;;;3.00;2.70;;;;;;;;;;5027921;28;20202;-62
2022/05/01 07:07:57;;;;;;;2.77;2.57;;;;;;;;;;5025974;28;20219;-61
2022/05/01 07:10:24;;;;;;;3.00;2.80;;;;;;;;;;5025934;28;20246;-62
2022/05/01 07:12:51;;;;;;;2.53;2.33;;;;;;;;;;5027788;28;20264;-63
2022/05/01 07:15:18;;;;;;;2.90;2.70;;;;;;;;;;5004906;28;20278;-61
2022/05/01 07:17:45;;;;;;;2.60;2.40;;;;;;;;;;5014137;28;20608;-62
2022/05/01 07:20:13;;;;;;;2.97;2.77;;;;;;;;;;5009209;28;20200;-61
2022/05/01 07:22:44;;;;;;;2.97;2.77;;;;;;;;;;5013112;28;20249;-61
2022/05/01 07:25:12;;;;;;;2.93;2.73;;;;;;;;;;5028379;28;20203;-62
2022/05/01 07:27:39;;;;;;;2.70;2.50;;;;;;;;;;5025457;28;20203;-62
2022/05/01 07:30:06;;;;;;;3.40;3.10;;;;;;;;;;5028370;28;20264;-62
2022/05/01 07:32:33;;;;;;;2.80;2.60;;;;;;;;;;5027828;28;20261;-62
2022/05/01 07:35:01;;;;;;;3.40;3.20;;;;;;;;;;5025948;28;20242;-62
2022/05/01 07:37:31;;;;;;;2.80;2.60;;;;;;;;;;5025993;28;20221;-61
2022/05/01 07:39:58;;;;;;;3.10;2.90;;;;;;;;;;5027960;28;20248;-62
2022/05/01 07:42:25;;;;;;;2.60;2.40;;;;;;;;;;5022384;28;20196;-62
2022/05/01 07:44:52;;;;;;;2.80;2.60;;;;;;;;;;5027982;28;20246;-62
2022/05/01 07:47:20;;;;;;;3.20;2.90;;;;;;;;;;4993295;28;20213;-62
2022/05/01 07:49:50;;;;;;;3.20;2.90;;;;;;;;;;5025468;28;20198;-62
2022/05/01 07:52:21;;;;;;;3.63;2.90;;;;;;;;;;5027939;28;20194;-63
2022/05/01 07:54:51;;;;;;;3.03;2.83;;;;;;;;;;5027577;28;20213;-63
2022/05/01 07:57:26;;;;;;;3.47;3.27;;;;;;;;;;5027387;28;20225;-63
2022/05/01 08:00:08;;;;;;;3.47;3.00;;;;;;;;;;5018397;28;20223;-62
2022/05/01 08:05:27;;;;;;;3.37;3.07;;;;;;;;;;5028085;28;20191;-63
2022/05/01 08:07:58;;;;;;;3.30;3.10;;;;;;;;;;5024998;28;20199;-63
2022/05/01 08:10:28;;;;;;;2.90;2.70;;;;;;;;;;5014595;28;20769;-63
2022/05/01 08:13:01;;;;;;;2.80;2.60;;;;;;;;;;5011586;28;20195;-63
2022/05/01 08:15:30;;;;;;;3.13;2.93;;;;;;;;;;5027417;28;20219;-62
2022/05/01 08:23:40;;;;;;;3.23;2.97;;;;;;;;;;5011778;28;20300;-62
2022/05/01 08:26:13;;;;;;;3.03;2.83;;;;;;;;;;5010323;28;20222;-62
2022/05/01 08:28:44;;;;;;;3.13;2.93;;;;;;;;;;5027200;28;20659;-63
2022/05/01 08:31:14;;;;;;;2.80;2.60;;;;;;;;;;5027406;28;20215;-63
2022/05/01 08:33:46;;;;;;;3.00;2.80;;;;;;;;;;5021246;28;20195;-62
2022/05/01 08:36:14;;;;;;;2.97;2.70;;;;;;;;;;5027404;28;20206;-62
2022/05/01 08:38:46;;;;;;;3.10;2.80;;;;;;;;;;5020301;28;20208;-62
2022/05/01 08:41:16;;;;;;;3.43;3.20;;;;;;;;;;5008443;28;20207;-63
2022/05/01 08:43:48;;;;;;;2.70;2.50;;;;;;;;;;5012349;28;20199;-62
2022/05/01 08:46:34;;;;;;;3.13;2.93;;;;;;;;;;5025410;28;20218;-62
2022/05/01 08:49:06;;;;;;;2.90;2.70;;;;;;;;;;5027255;28;20208;-63
2022/05/01 08:51:36;;;;;;;2.70;2.50;;;;;;;;;;5008521;28;20406;-62
2022/05/01 08:54:08;;;;;;;3.37;2.73;;;;;;;;;;5026406;28;20324;-63
2022/05/01 08:56:41;;;;;;;2.90;2.70;;;;;;;;;;5027854;28;20195;-62
2022/05/01 08:59:21;;;;;;;3.10;2.90;;;;;;;;;;4990191;28;20218;-62
2022/05/01 09:01:55;;;;;;;3.10;2.80;;;;;;;;;;4985493;28;20191;-62
2022/05/01 09:04:33;;;;;;;2.70;2.50;;;;;;;;;;4999434;28;20199;-62
2022/05/01 09:07:05;;;;;;;3.20;2.97;;;;;;;;;;4994479;28;20362;-63
2022/05/01 09:09:37;;;;;;;3.17;2.97;;;;;;;;;;4997761;28;20210;-63
2022/05/01 09:14:57;;;;;;;3.00;2.80;;;;;;;;;;4988226;28;20212;-62
2022/05/01 09:17:28;;;;;;;2.87;2.67;;;;;;;;;;4988144;28;20229;-62
2022/05/01 09:20:11;;;;;;;2.40;2.20;;;;;;;;;;4999614;28;20327;-62
2022/05/01 09:22:55;;;;;;;2.50;2.30;;;;;;;;;;5003828;28;20216;-63
2022/05/01 09:25:27;;;;;;;2.70;2.50;;;;;;;;;;5006736;28;20867;-62
2022/05/01 09:27:57;;;;;;;2.50;2.30;;;;;;;;;;4973791;28;21062;-62
2022/05/01 09:30:36;;;;;;;2.90;2.70;;;;;;;;;;5010950;28;20621;-61
2022/05/01 09:33:21;;;;;;;2.93;2.70;;;;;;;;;;4995560;28;20180;-62
2022/05/01 09:35:53;;;;;;;2.83;2.63;;;;;;;;;;4989280;28;20228;-62
2022/05/01 09:38:25;;;;;;;2.87;2.67;;;;;;;;;;5006733;28;20197;-61
2022/05/01 09:41:03;;;;;;;2.70;2.50;;;;;;;;;;5011269;28;20219;-62
2022/05/01 09:43:47;;;;;;;2.57;2.37;;;;;;;;;;5007603;28;20222;-61
2022/05/01 09:46:23;;;;;;;2.67;2.47;;;;;;;;;;5006299;28;20203;-62
2022/05/01 09:49:17;;;;;;;3.10;2.90;;;;;;;;;;5010669;28;20191;-63
2022/05/01 09:51:56;;;;;;;2.57;2.37;;;;;;;;;;5007478;28;20774;-62
2022/05/01 09:54:27;;;;;;;2.73;2.47;;;;;;;;;;4992387;28;20297;-62
2022/05/01 09:57:05;;;;;;;3.00;2.70;;;;;;;;;;5010698;28;20194;-61
2022/05/01 09:59:48;;;;;;;2.50;2.30;;;;;;;;;;4998206;28;20306;-62
2022/05/01 10:02:27;;;;;;;3.00;2.80;;;;;;;;;;4990693;28;20196;-62
2022/05/01 10:05:06;;;;;;;2.83;2.63;;;;;;;;;;5000899;28;20203;-62
2022/05/01 10:07:38;;;;;;;2.43;2.23;;;;;;;;;;4990587;28;20200;-62
2022/05/01 10:10:14;;;;;;;2.33;2.13;;;;;;;;;;4990134;28;20224;-62
2022/05/01 10:12:57;;;;;;;3.20;2.57;;;;;;;;;;5009629;28;20289;-62
2022/05/01 10:16:15;;;;;;;2.77;2.57;;;;;;;;;;4998131;28;20192;-62
2022/05/01 10:18:50;;;;;;;2.73;2.53;;;;;;;;;;4990849;28;20208;-65
2022/05/01 10:21:38;;;;;;;2.90;2.70;;;;;;;;;;4965804;28;20203;-63
2022/05/01 10:24:06;;;;;;;2.77;2.40;;;;;;;;;;4972997;28;20205;-63
2022/05/01 10:26:37;;;;;;;2.57;2.37;;;;;;;;;;5009890;28;20703;-62
2022/05/01 10:29:26;;;;;;;2.83;2.63;;;;;;;;;;5009819;28;20192;-62
2022/05/01 10:35:41;;;;;;;3.53;2.97;;;;;;;;;;4996564;28;20220;-62
2022/05/01 10:38:29;;;;;;;3.20;2.90;;;;;;;;;;5010097;28;20184;-62
2022/05/01 10:41:01;;;;;;;3.10;2.90;;;;;;;;;;5008473;28;20203;-62
2022/05/01 10:43:36;;;;;;;3.17;2.87;;;;;;;;;;4992315;28;20231;-63
2022/05/01 10:46:22;;;;;;;3.40;3.17;;;;;;;;;;5006407;28;20223;-62
2022/05/01 10:48:52;;;;;;;3.63;3.17;;;;;;;;;;5009247;28;20195;-61
2022/05/01 10:51:36;;;;;;;3.57;3.27;;;;;;;;;;5009171;28;20204;-62
2022/05/01 10:54:19;;;;;;;3.20;2.70;;;;;;;;;;5008862;28;20180;-62
2022/05/01 10:56:52;;;;;;;3.50;3.10;;;;;;;;;;5009634;28;20200;-63
2022/05/01 10:59:49;;;;;;;3.33;3.03;;;;;;;;;;5011491;28;20231;-63
2022/05/01 11:02:38;;;;;;;3.60;3.30;;;;;;;;;;5013039;28;20194;-62
2022/05/01 11:05:10;;;;;;;3.60;3.30;;;;;;;;;;5028729;28;20523;-62
2022/05/01 11:07:49;;;;;;;3.80;3.40;;;;;;;;;;5010543;28;20202;-62
2022/05/01 11:10:34;;;;;;;3.67;3.37;;;;;;;;;;5008049;28;20288;-62
2022/05/01 11:13:22;;;;;;;3.27;3.03;;;;;;;;;;5027628;28;20176;-62
2022/05/01 11:15:52;;;;;;;3.40;3.10;;;;;;;;;;5016642;28;20356;-62
2022/05/01 11:18:31;;;;;;;3.53;3.20;;;;;;;;;;5008640;28;20608;-62
2022/05/01 11:21:21;;;;;;;3.53;3.23;;;;;;;;;;5004506;28;20651;-62
2022/05/01 11:23:58;;;;;;;3.43;3.13;;;;;;;;;;5022817;28;20203;-62
2022/05/01 11:26:26;;;;;;;3.73;3.43;;;;;;;;;;5026084;28;20637;-62
2022/05/01 11:29:12;;;;;;;4.13;3.73;;;;;;;;;;5022581;28;20196;-62
2022/05/01 11:31:48;;;;;;;3.30;3.00;;;;;;;;;;5018788;28;20207;-63
2022/05/01 11:34:21;;;;;;;3.53;3.20;;;;;;;;;;5039311;28;20636;-63
2022/05/01 11:36:57;;;;;;;4.53;3.30;;;;;;;;;;5028231;28;20697;-63
2022/05/01 11:39:50;;;;;;;3.73;3.27;;;;;;;;;;5010570;28;20288;-63
2022/05/01 11:42:32;;;;;;;3.97;3.57;;;;;;;;;;4988698;28;20211;-62
2022/05/01 11:45:01;;;;;;;3.20;2.90;;;;;;;;;;4991242;28;20192;-62
2022/05/01 11:47:33;;;;;;;3.70;3.00;;;;;;;;;;5022701;28;20226;-62
2022/05/01 11:50:19;;;;;;;3.83;3.43;;;;;;;;;;5027538;28;20195;-62
2022/05/01 11:52:55;;;;;;;3.70;3.13;;;;;;;;;;5027432;28;20260;-62
2022/05/01 12:04:29;;;;;;;3.23;2.87;;;;;;;;;;5027349;28;20564;-63
2022/05/01 12:07:06;;;;;;;3.40;3.10;;;;;;;;;;5027051;28;20286;-62
2022/05/01 12:09:47;;;;;;;3.67;3.00;;;;;;;;;;5022739;28;20393;-62
2022/05/01 12:12:19;;;;;;;3.20;2.97;;;;;;;;;;5010077;28;20280;-62
2022/05/01 12:14:50;;;;;;;3.27;2.87;;;;;;;;;;5026894;28;20241;-62
2022/05/01 12:17:25;;;;;;;2.93;2.70;;;;;;;;;;5025580;28;20225;-62
2022/05/01 12:19:55;;;;;;;3.20;3.00;;;;;;;;;;5024922;28;20223;-62
2022/05/01 12:22:25;;;;;;;3.03;2.80;;;;;;;;;;5024790;28;20204;-62
2022/05/01 12:25:02;;;;;;;3.20;2.90;;;;;;;;;;5007849;28;20200;-62
2022/05/01 12:27:40;;;;;;;3.27;2.97;;;;;;;;;;5013785;28;20696;-61
2022/05/01 12:30:09;;;;;;;3.03;2.80;;;;;;;;;;5007700;28;20280;-62
2022/05/01 12:32:53;;;;;;;3.10;2.90;;;;;;;;;;5025352;28;20581;-63
2022/05/01 12:35:52;;;;;;;3.37;3.07;;;;;;;;;;5024241;28;20226;-62
2022/05/01 12:38:26;;;;;;;2.87;2.60;;;;;;;;;;5027457;28;20228;-63
2022/05/01 12:43:52;;;;;;;3.97;2.70;;;;;;;;;;5024507;28;20339;-63
2022/05/01 12:46:21;;;;;;;3.27;3.03;;;;;;;;;;5024833;28;20218;-63
2022/05/01 12:48:48;;;;;;;3.37;3.03;;;;;;;;;;5027251;28;20191;-62
2022/05/01 12:51:16;;;;;;;2.93;2.63;;;;;;;;;;5025998;28;20632;-62
2022/05/01 12:53:44;;;;;;;4.43;2.60;;;;;;;;;;5024141;28;20207;-62
2022/05/01 12:56:27;;;;;;;3.40;3.10;;;;;;;;;;5026518;28;20230;-62
2022/05/01 12:59:00;;;;;;;2.80;2.60;;;;;;;;;;5024496;28;20269;-62
2022/05/01 13:01:33;;;;;;;3.03;2.73;;;;;;;;;;4998946;28;20260;-61
2022/05/01 13:04:05;;;;;;;3.00;2.70;;;;;;;;;;5020905;28;20182;-62
2022/05/01 13:06:39;;;;;;;3.53;3.10;;;;;;;;;;5031131;28;20756;-63
2022/05/01 13:09:10;;;;;;;3.67;3.37;;;;;;;;;;5014187;28;20682;-63
2022/05/01 13:11:58;;;;;;;2.90;2.70;;;;;;;;;;5026155;28;20225;-63
2022/05/01 13:14:33;;;;;;;2.97;2.77;;;;;;;;;;5030962;28;20194;-62
2022/05/01 13:17:13;;;;;;;3.53;2.70;;;;;;;;;;5013739;28;20215;-63
2022/05/01 13:19:45;;;;;;;2.70;2.50;;;;;;;;;;5012371;28;20226;-62
2022/05/01 13:22:17;;;;;;;2.97;2.77;;;;;;;;;;5018725;28;20664;-63
2022/05/01 13:24:52;;;;;;;2.60;2.40;;;;;;;;;;5012696;28;20228;-63
2022/05/01 13:27:22;;;;;;;3.07;2.77;;;;;;;;;;5022539;28;20248;-63
2022/05/01 13:29:54;;;;;;;2.87;2.60;;;;;;;;;;5011608;28;20199;-63
2022/05/01 13:32:27;;;;;;;2.93;2.73;;;;;;;;;;5030292;28;20210;-63
2022/05/01 13:34:57;;;;;;;3.10;2.90;;;;;;;;;;5027943;28;20233;-63
2022/05/01 13:37:30;;;;;;;2.70;2.50;;;;;;;;;;5030339;28;20194;-62
2022/05/01 13:45:31;;;;;;;2.57;2.37;;;;;;;;;;5014736;28;20179;-62
2022/05/01 13:47:58;;;;;;;3.23;2.93;;;;;;;;;;5019379;28;20207;-62
2022/05/01 13:50:26;;;;;;;3.03;2.83;;;;;;;;;;5010544;28;20261;-63
2022/05/01 13:52:53;;;;;;;2.73;2.53;;;;;;;;;;5022422;28;20233;-63
2022/05/01 13:55:21;;;;;;;2.90;2.70;;;;;;;;;;5013166;28;20516;-63
2022/05/01 13:57:50;;;;;;;2.43;2.23;;;;;;;;;;5024900;28;20289;-62
2022/05/01 14:00:22;;;;;;;2.70;2.47;;;;;;;;;;5019125;28;20828;-62
2022/05/01 14:02:51;;;;;;;2.97;2.53;;;;;;;;;;5019040;28;20270;-62
2022/05/01 14:05:21;;;;;;;2.63;2.43;;;;;;;;;;5030302;28;20233;-63
2022/05/01 14:07:52;;;;;;;2.63;2.43;;;;;;;;;;5027408;28;20248;-63
2022/05/01 14:10:20;;;;;;;2.60;2.40;;;;;;;;;;5027233;28;20590;-62
2022/05/01 14:12:50;;;;;;;2.70;2.50;;;;;;;;;;5012868;28;20203;-62
2022/05/01 14:15:21;;;;;;;2.87;2.67;;;;;;;;;;5025758;28;20235;-63
2022/05/01 14:17:54;;;;;;;3.27;2.97;;;;;;;;;;5007787;28;20198;-63
2022/05/01 14:20:26;;;;;;;3.27;3.03;;;;;;;;;;5009608;28;20217;-63
2022/05/01 14:22:59;;;;;;;2.70;2.50;;;;;;;;;;5017323;28;20215;-61
2022/05/01 14:25:50;;;;;;;2.83;2.50;;;;;;;;;;5029481;28;20537;-61
2022/05/01 14:28:17;;;;;;;2.73;2.33;;;;;;;;;;5029107;28;20211;-61
2022/05/01 14:30:55;;;;;;;2.70;2.50;;;;;;;;;;5029751;28;20205;-61
2022/05/01 14:33:38;;;;;;;2.93;2.30;;;;;;;;;;5029085;28;20277;-62
2022/05/01 14:36:19;;;;;;;2.80;2.60;;;;;;;;;;5029388;28;20214;-62
2022/05/01 14:38:57;;;;;;;2.33;2.23;;;;;;;;;;5012676;28;20193;-62
2022/05/01 14:41:32;;;;;;;2.63;2.43;;;;;;;;;;5029805;28;20202;-63
2022/05/01 14:44:16;;;;;;;2.93;2.70;;;;;;;;;;5018175;28;20277;-63
2022/05/01 14:47:04;;;;;;;3.23;2.93;;;;;;;;;;5006962;28;20209;-63
2022/05/01 14:49:46;;;;;;;3.73;3.33;;;;;;;;;;5006892;28;20265;-63
2022/05/01 14:52:19;;;;;;;2.80;2.60;;;;;;;;;;5011402;28;20224;-63
2022/05/01 14:54:54;;;;;;;3.30;3.00;;;;;;;;;;5012632;28;20549;-63
2022/05/01 14:57:26;;;;;;;2.77;2.57;;;;;;;;;;5029076;28;20223;-63
2022/05/01 15:08:30;;;;;;;3.20;2.90;;;;;;;;;;5028601;28;20207;-61
2022/05/01 15:11:01;;;;;;;3.13;2.77;;;;;;;;;;5010392;28;20206;-61
2022/05/01 15:13:48;;;;;;;3.13;2.83;;;;;;;;;;5018112;28;20289;-61
2022/05/01 15:16:30;;;;;;;3.20;2.57;;;;;;;;;;5016031;28;20251;-63
2022/05/01 15:19:18;;;;;;;2.70;2.50;;;;;;;;;;5022455;28;20191;-61
2022/05/01 15:24:54;;;;;;;2.47;2.27;;;;;;;;;;5028401;28;20198;-63
2022/05/01 15:27:42;;;;;;;2.60;2.40;;;;;;;;;;5027712;28;20597;-62
2022/05/01 15:30:12;;;;;;;2.23;2.13;;;;;;;;;;5028918;28;20639;-62
2022/05/01 15:36:12;;;;;;;3.33;3.03;;;;;;;;;;5023076;28;20226;-63
2022/05/01 15:39:05;;;;;;;2.70;2.50;;;;;;;;;;5028341;28;20524;-63
2022/05/01 15:41:38;;;;;;;3.50;3.07;;;;;;;;;;5008122;28;20195;-62
2022/05/01 15:44:07;;;;;;;3.53;3.23;;;;;;;;;;5020211;28;20535;-63
2022/05/01 15:46:45;;;;;;;3.23;3.00;;;;;;;;;;5025509;28;20207;-63
2022/05/01 15:54:49;;;;;;;2.70;2.50;;;;;;;;;;5026406;28;20284;-63
2022/05/01 15:57:20;;;;;;;3.30;3.00;;;;;;;;;;5027512;28;20210;-63
2022/05/01 15:59:50;;;;;;;3.20;3.00;;;;;;;;;;4997781;28;20230;-63
2022/05/01 16:02:23;;;;;;;3.37;3.07;;;;;;;;;;4991292;28;20212;-62
2022/05/01 16:04:53;;;;;;;3.03;2.67;;;;;;;;;;5007009;28;20195;-68
2022/05/01 16:07:50;;;;;;;2.90;2.30;;;;;;;;;;5011230;28;20890;-63
2022/05/01 16:10:26;;;;;;;2.93;2.73;;;;;;;;;;4970314;28;20216;-62
2022/05/01 16:13:05;;;;;;;3.90;3.37;;;;;;;;;;5000405;28;20211;-63
2022/05/01 16:15:45;;;;;;;3.10;2.70;;;;;;;;;;4999450;28;20200;-62
2022/05/01 16:18:31;;;;;;;3.17;2.60;;;;;;;;;;4992312;28;20196;-63
2022/05/01 16:21:26;;;;;;;2.57;2.37;;;;;;;;;;5027732;28;20617;-62
2022/05/01 16:24:02;;;;;;;2.77;2.57;;;;;;;;;;5021959;28;20203;-63